createdAt,value
2022-11-26T00:02:25.186Z,95882.44
2022-11-26T00:04:54.968Z,95878.16
2022-11-26T00:07:26.566Z,95894.94
2022-11-26T00:09:54.026Z,95889.56
2022-11-26T00:12:22.260Z,95898.97
2022-11-26T00:14:49.165Z,95898.44
2022-11-26T00:17:16.252Z,95901.25
2022-11-26T00:19:44.591Z,95909.59
2022-11-26T00:22:25.122Z,95905.94
2022-11-26T00:24:52.940Z,95907.13
2022-11-26T00:27:19.900Z,95911.78
2022-11-26T00:29:46.505Z,95914.31
2022-11-26T00:32:22.583Z,95913.59
2022-11-26T00:34:49.196Z,95917.63
2022-11-26T00:37:20.448Z,95919.69
2022-11-26T00:39:47.622Z,95925.47
2022-11-26T00:42:14.433Z,95921.19
2022-11-26T00:44:41.060Z,95921.16
2022-11-26T00:47:09.550Z,95921.97
2022-11-26T00:49:36.411Z,95921.16
2022-11-26T00:52:03.927Z,95924.91
2022-11-26T00:54:30.657Z,95918.22
2022-11-26T00:56:57.296Z,95917.59
2022-11-26T00:59:24.019Z,95919.69
2022-11-26T01:01:50.836Z,95907.16
2022-11-26T01:04:17.439Z,95912.16
2022-11-26T01:06:45.706Z,95932.25
2022-11-26T01:09:19.214Z,95937.38
2022-11-26T01:11:49.725Z,95940.78
2022-11-26T01:14:18.303Z,95940.63
2022-11-26T01:16:46.893Z,95943.91
2022-11-26T01:19:15.293Z,95948.06
2022-11-26T01:21:42.254Z,95945.25
2022-11-26T01:24:08.872Z,95961.88
2022-11-26T01:26:40.742Z,95957.38
2022-11-26T01:29:07.564Z,95955.38
2022-11-26T01:31:34.188Z,95957.84
2022-11-26T01:34:00.754Z,95955.66
2022-11-26T01:36:45.389Z,95962.78
2022-11-26T01:39:18.090Z,95966.91
2022-11-26T01:42:07.280Z,95977.22
2022-11-26T01:44:36.718Z,95972.75
2022-11-26T01:47:21.495Z,95976.69
2022-11-26T01:50:25.423Z,95979.69
2022-11-26T01:52:52.347Z,95976.06
2022-11-26T01:55:19.410Z,95978.78
2022-11-26T01:57:46.634Z,95979.88
2022-11-26T02:00:13.807Z,95980.69
2022-11-26T02:02:41.224Z,95984.09
2022-11-26T02:05:20.593Z,95985.16
2022-11-26T02:07:47.724Z,95985.97
2022-11-26T02:10:14.677Z,95978.50
2022-11-26T02:12:42.713Z,95982.78
2022-11-26T02:15:10.674Z,95986.28
2022-11-26T02:17:44.097Z,95981.63
2022-11-26T02:20:26.024Z,95988.63
2022-11-26T02:23:17.061Z,95986.19
2022-11-26T02:26:20.301Z,95984.53
2022-11-26T02:29:01.992Z,95991.38
2022-11-26T02:31:50.349Z,95990.38
2022-11-26T02:34:41.920Z,95995.66
2022-11-26T02:37:16.092Z,95988.19
2022-11-26T02:39:42.714Z,95988.00
2022-11-26T02:42:26.199Z,95987.72
2022-11-26T02:44:55.811Z,95993.28
2022-11-26T02:47:24.663Z,95993.47
2022-11-26T02:49:52.585Z,95988.63
2022-11-26T02:52:20.875Z,95996.41
2022-11-26T02:54:50.277Z,96006.28
2022-11-26T02:57:20.451Z,95998.84
2022-11-26T02:59:47.471Z,95998.97
2022-11-26T03:02:17.016Z,96012.56
2022-11-26T03:04:48.743Z,96009.19
2022-11-26T03:07:15.837Z,96019.59
2022-11-26T03:09:50.877Z,96015.28
2022-11-26T03:12:17.486Z,96013.84
2022-11-26T03:14:44.134Z,96018.97
2022-11-26T03:17:10.717Z,96017.41
2022-11-26T03:19:37.495Z,96019.97
2022-11-26T03:22:04.283Z,96021.78
2022-11-26T03:24:31.678Z,96016.56
2022-11-26T03:26:58.331Z,96014.31
2022-11-26T03:29:25.202Z,96006.25
2022-11-26T03:31:51.991Z,96012.28
2022-11-26T03:34:18.668Z,96018.25
2022-11-26T03:36:45.178Z,96009.53
2022-11-26T03:39:11.855Z,96012.19
2022-11-26T03:41:38.749Z,96010.63
2022-11-26T03:44:05.353Z,96013.56
2022-11-26T03:46:31.887Z,96019.72
2022-11-26T03:48:58.451Z,96011.31
2022-11-26T03:51:25.011Z,96031.03
2022-11-26T03:53:51.643Z,96035.31
2022-11-26T03:56:18.235Z,96038.59
2022-11-26T03:58:44.834Z,96039.03
2022-11-26T04:01:13.167Z,96045.06
2022-11-26T04:03:40.338Z,96046.25
2022-11-26T04:06:07.316Z,96056.88
2022-11-26T04:08:34.358Z,96053.66
2022-11-26T04:11:01.203Z,96049.75
2022-11-26T04:13:27.763Z,96052.31
2022-11-26T04:15:54.347Z,96055.31
2022-11-26T04:18:20.975Z,96059.31
2022-11-26T04:20:52.576Z,96061.53
2022-11-26T04:23:19.876Z,96069.38
2022-11-26T04:25:46.853Z,96078.63
2022-11-26T04:28:15.124Z,96073.13
2022-11-26T04:30:42.742Z,96082.06
2022-11-26T04:33:09.653Z,96085.47
2022-11-26T04:35:36.555Z,96086.22
2022-11-26T04:38:03.281Z,96096.88
2022-11-26T04:40:29.862Z,96092.31
2022-11-26T04:42:56.435Z,96091.44
2022-11-26T04:45:22.978Z,96090.59
2022-11-26T04:47:49.541Z,96097.16
2022-11-26T04:50:16.209Z,96095.50
2022-11-26T04:52:42.754Z,96102.25
2022-11-26T04:55:09.691Z,96096.78
2022-11-26T04:57:36.287Z,96104.91
2022-11-26T05:00:03.023Z,96100.91
2022-11-26T05:02:29.687Z,96111.25
2022-11-26T05:04:56.304Z,96111.88
2022-11-26T05:07:22.898Z,96114.53
2022-11-26T05:09:49.633Z,96119.91
2022-11-26T05:12:16.310Z,96116.72
2022-11-26T05:14:42.893Z,96120.84
2022-11-26T05:17:09.475Z,96126.34
2022-11-26T05:19:36.036Z,96129.13
2022-11-26T05:22:02.618Z,96129.66
2022-11-26T05:24:29.168Z,96134.44
2022-11-26T05:26:57.312Z,96134.19
2022-11-26T05:29:24.664Z,96146.25
2022-11-26T05:31:51.470Z,96146.25
2022-11-26T05:34:18.339Z,96147.16
2022-11-26T05:36:45.031Z,96149.34
2022-11-26T05:39:11.638Z,96156.00
2022-11-26T05:41:38.327Z,96155.22
2022-11-26T05:44:05.024Z,96153.16
2022-11-26T05:46:31.676Z,96154.25
2022-11-26T05:48:58.240Z,96154.44
2022-11-26T05:51:24.827Z,96161.47
2022-11-26T05:53:51.455Z,96165.03
2022-11-26T05:56:18.116Z,96164.03
2022-11-26T05:58:44.699Z,96168.41
2022-11-26T06:01:11.335Z,96172.53
2022-11-26T06:03:38.365Z,96171.00
2022-11-26T06:06:05.573Z,96175.19
2022-11-26T06:08:32.227Z,96169.97
2022-11-26T06:10:58.847Z,96171.56
2022-11-26T06:13:25.732Z,96172.72
2022-11-26T06:15:52.357Z,96177.75
2022-11-26T06:18:18.933Z,96176.47
2022-11-26T06:20:45.565Z,96178.28
2022-11-26T06:23:12.188Z,96179.47
2022-11-26T06:25:42.489Z,96180.41
2022-11-26T06:28:09.184Z,96189.56
2022-11-26T06:30:35.807Z,96193.69
2022-11-26T06:33:02.342Z,96191.50
2022-11-26T06:35:28.952Z,96201.53
2022-11-26T06:37:55.885Z,96203.28
2022-11-26T06:40:22.497Z,96209.97
2022-11-26T06:42:51.557Z,96214.56
2022-11-26T06:45:18.542Z,96210.03
2022-11-26T06:47:49.661Z,96211.63
2022-11-26T06:50:18.255Z,96210.34
2022-11-26T06:52:45.142Z,96219.41
2022-11-26T06:55:12.021Z,96221.56
2022-11-26T06:57:38.587Z,96217.53
2022-11-26T07:00:06.266Z,96220.00
2022-11-26T07:02:33.175Z,96222.13
2022-11-26T07:04:59.771Z,96215.31
2022-11-26T07:07:26.473Z,96214.47
2022-11-26T07:09:53.085Z,96217.03
2022-11-26T07:12:19.700Z,96228.72
2022-11-26T07:14:46.239Z,96226.00
2022-11-26T07:17:12.879Z,96236.06
2022-11-26T07:19:39.417Z,96235.00
2022-11-26T07:22:06.006Z,96234.19
2022-11-26T07:24:32.557Z,96229.91
2022-11-26T07:26:59.166Z,96232.53
2022-11-26T07:29:25.760Z,96230.97
2022-11-26T07:31:52.359Z,96237.47
2022-11-26T07:34:18.942Z,96243.41
2022-11-26T07:36:45.477Z,96237.38
2022-11-26T07:39:12.940Z,96240.50
2022-11-26T07:41:39.628Z,96240.25
2022-11-26T07:44:06.177Z,96247.03
2022-11-26T07:46:32.817Z,96251.72
2022-11-26T07:48:59.374Z,96253.78
2022-11-26T07:51:31.818Z,96252.06
2022-11-26T07:54:00.045Z,96249.59
2022-11-26T07:56:27.122Z,96253.59
2022-11-26T07:58:53.986Z,96244.41
2022-11-26T08:01:23.547Z,96248.59
2022-11-26T08:03:51.405Z,96257.75
2022-11-26T08:06:20.958Z,96265.31
2022-11-26T08:08:48.124Z,96256.06
2022-11-26T08:11:23.438Z,96273.50
2022-11-26T08:13:54.858Z,96267.13
2022-11-26T08:16:21.487Z,96274.00
2022-11-26T08:18:48.271Z,96272.25
2022-11-26T08:21:14.854Z,96265.00
2022-11-26T08:23:41.454Z,96267.63
2022-11-26T08:26:23.758Z,96272.88
2022-11-26T08:28:53.203Z,96271.38
2022-11-26T08:31:20.327Z,96272.22
2022-11-26T08:33:47.114Z,96276.88
2022-11-26T08:36:13.706Z,96278.63
2022-11-26T08:38:40.589Z,96280.13
2022-11-26T08:41:10.449Z,96286.13
2022-11-26T08:44:05.605Z,96282.97
2022-11-26T08:46:25.934Z,96288.19
2022-11-26T08:48:55.465Z,96290.00
2022-11-26T08:51:22.184Z,96289.38
2022-11-26T08:53:48.757Z,96292.59
2022-11-26T08:56:15.320Z,96289.38
2022-11-26T08:58:45.046Z,96296.72
2022-11-26T09:01:15.761Z,96299.94
2022-11-26T09:03:42.776Z,96305.34
2022-11-26T09:06:10.120Z,96305.81
2022-11-26T09:08:56.134Z,96314.88
2022-11-26T09:11:23.622Z,96316.16
2022-11-26T09:13:50.241Z,96319.78
2022-11-26T09:16:16.972Z,96330.63
2022-11-26T09:18:43.552Z,96325.09
2022-11-26T09:21:10.118Z,96330.69
2022-11-26T09:23:37.401Z,96331.66
2022-11-26T09:26:03.956Z,96331.41
2022-11-26T09:28:30.588Z,96328.88
2022-11-26T09:31:01.388Z,96333.53
2022-11-26T09:33:29.056Z,96332.28
2022-11-26T09:36:07.153Z,96335.69
2022-11-26T09:38:34.491Z,96339.72
2022-11-26T09:41:28.945Z,96343.19
2022-11-26T09:44:27.160Z,96340.16
2022-11-26T09:47:15.349Z,96338.72
2022-11-26T09:50:15.981Z,96335.97
2022-11-26T09:52:54.524Z,96337.72
2022-11-26T09:55:23.174Z,96342.41
2022-11-26T09:57:59.435Z,96338.28
2022-11-26T10:00:30.044Z,96334.59
2022-11-26T10:02:57.961Z,96337.75
2022-11-26T10:05:50.109Z,96342.13
2022-11-26T10:08:41.329Z,96333.50
2022-11-26T10:11:27.514Z,96333.16
2022-11-26T10:14:21.780Z,96339.72
2022-11-26T10:17:14.510Z,96337.47
2022-11-26T10:20:18.618Z,96331.63
2022-11-26T10:22:45.165Z,96339.19
2022-11-26T10:25:19.515Z,96339.94
2022-11-26T10:27:49.176Z,96332.88
2022-11-26T10:30:19.810Z,96331.63
2022-11-26T10:32:48.767Z,96323.09
2022-11-26T10:35:27.436Z,96328.03
2022-11-26T10:37:58.022Z,96321.19
2022-11-26T10:40:29.740Z,96327.59
2022-11-26T10:43:12.520Z,96326.03
2022-11-26T10:45:40.632Z,96317.59
2022-11-26T10:48:30.633Z,96321.16
2022-11-26T10:51:03.486Z,96318.50
2022-11-26T10:53:35.599Z,96318.13
2022-11-26T10:56:07.069Z,96308.84
2022-11-26T10:58:41.694Z,96301.81
2022-11-26T11:01:09.833Z,96299.25
2022-11-26T11:06:43.187Z,96298.53
2022-11-26T11:09:26.253Z,96301.09
2022-11-26T11:12:25.182Z,96295.56
2022-11-26T11:14:54.043Z,96292.16
2022-11-26T11:17:31.214Z,96294.19
2022-11-26T11:20:18.130Z,96293.44
2022-11-26T11:22:46.170Z,96284.03
2022-11-26T11:25:23.506Z,96286.09
2022-11-26T11:27:51.000Z,96285.28
2022-11-26T11:30:28.847Z,96283.84
2022-11-26T11:32:59.786Z,96288.66
2022-11-26T11:35:31.195Z,96284.06
2022-11-26T11:37:58.692Z,96284.06
2022-11-26T11:40:30.432Z,96291.03
2022-11-26T11:43:06.060Z,96290.09
2022-11-26T11:45:36.484Z,96292.19
2022-11-26T11:48:37.700Z,96286.19
2022-11-26T11:51:13.554Z,96283.25
2022-11-26T11:53:59.504Z,96284.47
2022-11-26T11:56:26.044Z,96289.59
2022-11-26T11:59:20.656Z,96288.09
2022-11-26T12:02:08.650Z,96283.22
2022-11-26T12:05:20.327Z,96292.25
2022-11-26T12:08:13.323Z,96288.22
2022-11-26T12:11:18.916Z,96284.31
2022-11-26T12:13:54.385Z,96291.75
2022-11-26T12:16:24.801Z,96286.25
2022-11-26T12:19:04.770Z,96290.09
2022-11-26T12:21:39.399Z,96286.38
2022-11-26T12:24:15.041Z,96289.25
2022-11-26T12:26:51.345Z,96300.75
2022-11-26T12:29:26.653Z,96301.09
2022-11-26T12:32:09.222Z,96301.31
2022-11-26T12:34:43.614Z,96307.38
2022-11-26T12:37:40.989Z,96303.09
2022-11-26T12:40:50.754Z,96298.06
2022-11-26T12:43:34.611Z,96302.56
2022-11-26T12:46:22.289Z,96297.22
2022-11-26T12:49:18.462Z,96296.25
2022-11-26T12:52:14.545Z,96300.34
2022-11-26T12:54:48.798Z,96306.03
2022-11-26T12:57:23.977Z,96310.91
2022-11-26T13:00:06.350Z,96309.97
2022-11-26T13:02:38.093Z,96308.84
2022-11-26T13:05:05.535Z,96308.13
2022-11-26T13:08:09.639Z,96307.81
2022-11-26T13:10:38.868Z,96307.00
2022-11-26T13:13:22.074Z,96308.03
2022-11-26T13:16:21.162Z,96305.88
2022-11-26T13:18:52.855Z,96303.19
2022-11-26T13:21:28.112Z,96298.03
2022-11-26T13:24:13.504Z,96298.78
2022-11-26T13:27:03.205Z,96293.56
2022-11-26T13:30:00.810Z,96299.88
2022-11-26T13:32:52.216Z,96287.91
2022-11-26T13:35:57.226Z,96294.19
2022-11-26T13:38:42.296Z,96288.09
2022-11-26T13:41:44.272Z,96285.09
2022-11-26T13:44:42.772Z,96281.09
2022-11-26T13:47:18.863Z,96273.56
2022-11-26T13:49:55.085Z,96270.94
2022-11-26T13:52:50.974Z,96282.47
2022-11-26T13:55:25.896Z,96280.69
2022-11-26T13:57:58.527Z,96267.97
2022-11-26T14:00:43.488Z,96271.28
2022-11-26T14:03:46.738Z,96269.94
2022-11-26T14:06:14.926Z,96274.34
2022-11-26T14:08:46.923Z,96276.25
2022-11-26T14:11:39.449Z,96281.94
2022-11-26T14:14:27.226Z,96274.78
2022-11-26T14:17:13.890Z,96281.41
2022-11-26T14:19:40.368Z,96287.50
2022-11-26T14:22:22.273Z,96284.69
2022-11-26T14:24:49.099Z,96293.28
2022-11-26T14:27:15.621Z,96287.53
2022-11-26T14:29:43.332Z,96290.41
2022-11-26T14:32:23.033Z,96292.47
2022-11-26T14:34:59.070Z,96288.38
2022-11-26T14:37:30.752Z,96289.38
2022-11-26T14:40:02.341Z,96292.22
2022-11-26T14:42:29.184Z,96291.25
2022-11-26T14:45:16.274Z,96286.16
2022-11-26T14:47:49.754Z,96290.31
2022-11-26T14:50:18.551Z,96293.13
2022-11-26T14:52:46.002Z,96298.91
2022-11-26T14:55:15.545Z,96297.97
2022-11-26T14:57:46.090Z,96299.94
2022-11-26T15:00:12.586Z,96300.91
2022-11-26T15:02:41.036Z,96302.72
2022-11-26T15:05:17.925Z,96299.91
2022-11-26T15:07:46.176Z,96310.47
2022-11-26T15:10:15.746Z,96311.81
2022-11-26T15:12:43.828Z,96307.50
2022-11-26T15:15:19.421Z,96313.16
2022-11-26T15:18:19.098Z,96302.63
2022-11-26T15:20:53.299Z,96309.16
2022-11-26T15:23:27.982Z,96298.75
2022-11-26T15:25:55.268Z,96301.00
2022-11-26T15:28:23.051Z,96308.63
2022-11-26T15:31:01.598Z,96307.06
2022-11-26T15:33:31.701Z,96315.47
2022-11-26T15:35:58.608Z,96319.00
2022-11-26T15:38:27.578Z,96309.44
2022-11-26T15:40:58.337Z,96311.69
2022-11-26T15:43:37.142Z,96317.13
2022-11-26T15:46:20.393Z,96314.44
2022-11-26T15:48:53.369Z,96311.63
2022-11-26T15:51:36.038Z,96311.47
2022-11-26T15:54:30.889Z,96315.28
2022-11-26T15:57:19.132Z,96321.00
2022-11-26T15:59:51.336Z,96309.66
2022-11-26T16:02:24.016Z,96312.22
2022-11-26T16:04:52.689Z,96305.91
2022-11-26T16:07:28.487Z,96305.00
2022-11-26T16:10:26.032Z,96307.63
2022-11-26T16:13:11.522Z,96314.44
2022-11-26T16:15:50.049Z,96317.34
2022-11-26T16:18:20.918Z,96309.09
2022-11-26T16:20:48.151Z,96311.03
2022-11-26T16:23:27.227Z,96316.06
2022-11-26T16:26:19.324Z,96314.81
2022-11-26T16:28:47.197Z,96311.88
2022-11-26T16:31:15.560Z,96309.69
2022-11-26T16:33:42.516Z,96302.31
2022-11-26T16:36:19.980Z,96316.31
2022-11-26T16:38:47.833Z,96311.63
2022-11-26T16:41:16.470Z,96305.09
2022-11-26T16:43:43.106Z,96304.44
2022-11-26T16:46:14.436Z,96310.53
2022-11-26T16:48:42.213Z,96306.59
2022-11-26T16:51:09.041Z,96300.53
2022-11-26T16:53:36.085Z,96299.78
2022-11-26T16:56:02.864Z,96297.41
2022-11-26T16:58:32.573Z,96296.53
2022-11-26T17:00:59.721Z,96292.34
2022-11-26T17:03:29.802Z,96295.22
2022-11-26T17:06:00.085Z,96288.13
2022-11-26T17:08:28.355Z,96293.59
2022-11-26T17:10:55.104Z,96299.03
2022-11-26T17:13:22.117Z,96297.47
2022-11-26T17:15:49.326Z,96296.03
2022-11-26T17:18:23.146Z,96297.19
2022-11-26T17:20:51.356Z,96296.69
2022-11-26T17:23:18.579Z,96298.16
2022-11-26T17:25:46.504Z,96292.75
2022-11-26T17:28:14.801Z,96293.88
2022-11-26T17:30:43.504Z,96299.63
2022-11-26T17:33:11.059Z,96291.03
2022-11-26T17:35:38.355Z,96296.19
2022-11-26T17:38:20.818Z,96297.09
2022-11-26T17:40:48.171Z,96294.91
2022-11-26T17:43:14.863Z,96294.41
2022-11-26T17:45:41.729Z,96297.25
2022-11-26T17:48:12.686Z,96284.59
2022-11-26T17:50:40.425Z,96288.97
2022-11-26T17:53:07.144Z,96288.38
2022-11-26T17:55:33.905Z,96283.41
2022-11-26T17:58:00.538Z,96287.94
2022-11-26T18:00:28.648Z,96293.88
2022-11-26T18:02:56.366Z,96298.84
2022-11-26T18:05:23.709Z,96294.78
2022-11-26T18:07:50.758Z,96297.31
2022-11-26T18:10:19.739Z,96296.53
2022-11-26T18:12:46.763Z,96303.41
2022-11-26T18:15:19.209Z,96299.69
2022-11-26T18:17:51.153Z,96302.88
2022-11-26T18:20:19.735Z,96304.69
2022-11-26T18:22:49.164Z,96305.63
2022-11-26T18:25:15.803Z,96311.34
2022-11-26T18:27:42.420Z,96309.19
2022-11-26T18:30:09.326Z,96309.91
2022-11-26T18:32:38.065Z,96318.88
2022-11-26T18:35:06.207Z,96323.34
2022-11-26T18:37:34.805Z,96320.31
2022-11-26T18:40:01.767Z,96326.94
2022-11-26T18:42:43.869Z,96328.25
2022-11-26T18:45:13.322Z,96330.41
2022-11-26T18:47:39.966Z,96324.59
2022-11-26T18:50:07.249Z,96323.84
2022-11-26T18:52:33.880Z,96327.31
2022-11-26T18:55:00.724Z,96324.81
2022-11-26T18:57:27.756Z,96324.13
2022-11-26T18:59:54.281Z,96322.63
2022-11-26T19:02:20.972Z,96315.84
2022-11-26T19:04:47.603Z,96313.25
2022-11-26T19:07:15.930Z,96313.13
2022-11-26T19:09:43.065Z,96314.09
2022-11-26T19:12:12.602Z,96313.31
2022-11-26T19:14:39.543Z,96310.00
2022-11-26T19:17:06.307Z,96315.06
2022-11-26T19:19:33.133Z,96322.78
2022-11-26T19:22:01.701Z,96319.25
2022-11-26T19:24:29.518Z,96319.53
2022-11-26T19:26:57.688Z,96319.59
2022-11-26T19:29:24.355Z,96323.81
2022-11-26T19:31:50.979Z,96321.34
2022-11-26T19:34:17.565Z,96319.03
2022-11-26T19:36:48.233Z,96316.56
2022-11-26T19:39:16.022Z,96315.44
2022-11-26T19:41:42.689Z,96316.41
2022-11-26T19:44:09.458Z,96307.41
2022-11-26T19:46:40.462Z,96313.19
2022-11-26T19:49:09.463Z,96305.53
2022-11-26T19:51:36.146Z,96308.03
2022-11-26T19:54:02.712Z,96310.34
2022-11-26T19:56:31.359Z,96301.06
2022-11-26T19:58:58.928Z,96311.13
2022-11-26T20:01:28.820Z,96305.28
2022-11-26T20:03:55.861Z,96304.50
2022-11-26T20:06:27.919Z,96306.56
2022-11-26T20:08:55.704Z,96301.75
2022-11-26T20:11:23.063Z,96303.69
2022-11-26T20:13:50.695Z,96299.53
2022-11-26T20:16:23.673Z,96309.81
2022-11-26T20:18:50.764Z,96303.91
2022-11-26T20:21:23.522Z,96302.25
2022-11-26T20:23:51.778Z,96299.81
2022-11-26T20:26:25.301Z,96299.09
2022-11-26T20:28:52.866Z,96299.31
2022-11-26T20:31:23.636Z,96301.00
2022-11-26T20:33:52.866Z,96296.03
2022-11-26T20:36:20.998Z,96295.13
2022-11-26T20:38:52.656Z,96285.75
2022-11-26T20:41:19.546Z,96282.00
2022-11-26T20:43:46.241Z,96287.13
2022-11-26T20:46:14.314Z,96280.16
2022-11-26T20:48:42.775Z,96276.72
2022-11-26T20:51:15.403Z,96272.22
2022-11-26T20:53:45.849Z,96268.78
2022-11-26T20:56:14.470Z,96263.66
2022-11-26T20:58:41.722Z,96272.19
2022-11-26T21:01:34.884Z,96268.78
2022-11-26T21:04:01.808Z,96268.28
2022-11-26T21:06:30.726Z,96267.31
2022-11-26T21:09:02.943Z,96264.06
2022-11-26T21:11:30.178Z,96269.66
2022-11-26T21:13:58.495Z,96261.28
2022-11-26T21:16:25.526Z,96258.88
2022-11-26T21:18:54.530Z,96262.44
2022-11-26T21:21:21.630Z,96267.44
2022-11-26T21:23:48.242Z,96269.09
2022-11-26T21:26:20.583Z,96265.50
2022-11-26T21:28:52.003Z,96257.38
2022-11-26T21:31:20.071Z,96261.53
2022-11-26T21:33:47.758Z,96255.75
2022-11-26T21:36:16.406Z,96253.31
2022-11-26T21:38:48.343Z,96259.38
2022-11-26T21:41:16.100Z,96255.03
2022-11-26T21:43:44.150Z,96255.59
2022-11-26T21:46:15.696Z,96255.81
2022-11-26T21:48:42.654Z,96255.88
2022-11-26T21:51:15.830Z,96245.97
2022-11-26T21:53:43.126Z,96249.38
2022-11-26T21:56:22.277Z,96237.59
2022-11-26T21:58:49.861Z,96248.91
2022-11-26T22:01:22.555Z,96242.22
2022-11-26T22:03:52.524Z,96244.69
2022-11-26T22:06:21.217Z,96235.59
2022-11-26T22:08:48.175Z,96240.72
2022-11-26T22:11:20.921Z,96248.97
2022-11-26T22:13:48.308Z,96250.69
2022-11-26T22:16:16.948Z,96257.47
2022-11-26T22:18:44.728Z,96252.59
2022-11-26T22:21:13.961Z,96256.81
2022-11-26T22:23:40.504Z,96246.75
2022-11-26T22:26:07.994Z,96247.75
2022-11-26T22:28:35.139Z,96254.63
2022-11-26T22:31:25.201Z,96251.25
2022-11-26T22:33:55.629Z,96246.84
2022-11-26T22:36:22.640Z,96249.28
2022-11-26T22:38:49.201Z,96257.03
2022-11-26T22:41:15.997Z,96254.53
2022-11-26T22:43:42.891Z,96265.59
2022-11-26T22:46:16.130Z,96266.38
2022-11-26T22:48:43.419Z,96268.06
2022-11-26T22:51:10.741Z,96269.91
2022-11-26T22:53:37.827Z,96274.03
2022-11-26T22:56:05.376Z,96268.28
2022-11-26T22:58:33.883Z,96271.13
2022-11-26T23:01:04.451Z,96265.28
2022-11-26T23:03:33.615Z,96272.91
2022-11-26T23:06:05.859Z,96268.59
2022-11-26T23:08:32.664Z,96283.03
2022-11-26T23:11:34.360Z,96278.94
2022-11-26T23:14:07.034Z,96268.09
2022-11-26T23:16:34.608Z,96261.19
2022-11-26T23:19:01.882Z,96258.66
2022-11-26T23:21:31.329Z,96255.03
2022-11-26T23:23:58.102Z,96254.31
2022-11-26T23:26:27.989Z,96254.38
2022-11-26T23:28:59.346Z,96247.38
2022-11-26T23:31:28.580Z,96243.09
2022-11-26T23:33:55.712Z,96239.63
2022-11-26T23:36:23.277Z,96237.25
2022-11-26T23:38:53.194Z,96234.63
2022-11-26T23:41:19.844Z,96235.75
2022-11-26T23:43:46.849Z,96230.44
2022-11-26T23:46:16.476Z,96234.19
2022-11-26T23:48:43.744Z,96236.81
2022-11-26T23:51:19.582Z,96227.41
2022-11-26T23:53:47.936Z,96222.03
2022-11-26T23:56:35.676Z,96221.41
2022-11-26T23:59:03.819Z,96217.19
